createdAt,value
2023-02-21T00:00:02.386Z,92.22
2023-02-21T00:02:22.027Z,91.94
2023-02-21T00:04:41.781Z,92.12
2023-02-21T00:07:04.529Z,92.59
2023-02-21T00:09:24.362Z,91.97
2023-02-21T00:11:44.077Z,92.13
2023-02-21T00:14:03.797Z,92.48
2023-02-21T00:16:24.095Z,91.91
2023-02-21T00:18:44.354Z,92.66
2023-02-21T00:21:04.580Z,92.33
2023-02-21T00:23:24.429Z,92.61
2023-02-21T00:25:44.783Z,92.07
2023-02-21T00:28:04.562Z,92.08
2023-02-21T00:30:26.060Z,92.02
2023-02-21T00:32:46.126Z,92.87
2023-02-21T00:35:06.234Z,92.43
2023-02-21T00:37:25.998Z,92.35
2023-02-21T00:43:01.141Z,92.37
2023-02-21T00:45:21.012Z,92.66
2023-02-21T00:47:40.758Z,92.86
2023-02-21T00:50:00.487Z,93.18
2023-02-21T00:52:20.231Z,92.27
2023-02-21T00:54:40.024Z,92.91
2023-02-21T00:56:59.829Z,93.14
2023-02-21T00:59:20.021Z,93.21
2023-02-21T01:01:39.855Z,93.00
2023-02-21T01:03:59.816Z,92.85
2023-02-21T01:06:19.707Z,93.80
2023-02-21T01:08:39.384Z,93.71
2023-02-21T01:10:59.767Z,93.33
2023-02-21T01:13:20.043Z,92.98
2023-02-21T01:15:39.990Z,93.43
2023-02-21T01:17:59.977Z,93.01
2023-02-21T01:20:20.455Z,92.75
2023-02-21T01:22:40.512Z,93.53
2023-02-21T01:25:00.895Z,94.08
2023-02-21T01:27:20.823Z,93.26
2023-02-21T01:29:40.509Z,93.22
2023-02-21T01:32:00.376Z,93.92
2023-02-21T01:34:20.582Z,93.74
2023-02-21T01:36:40.825Z,93.42
2023-02-21T01:39:01.107Z,94.21
2023-02-21T01:41:20.890Z,93.59
2023-02-21T01:43:42.696Z,93.63
2023-02-21T01:46:09.805Z,94.37
2023-02-21T01:48:35.508Z,94.10
2023-02-21T01:50:55.106Z,94.71
2023-02-21T01:53:14.950Z,94.72
2023-02-21T01:55:35.205Z,94.02
2023-02-21T01:57:57.460Z,94.23
2023-02-21T02:00:20.236Z,94.89
2023-02-21T02:02:52.152Z,93.95
2023-02-21T02:05:14.005Z,94.72
2023-02-21T02:07:34.232Z,94.38
2023-02-21T02:09:54.006Z,95.02
2023-02-21T02:12:24.825Z,94.94
2023-02-21T02:14:37.580Z,93.94
2023-02-21T02:16:46.967Z,94.68
2023-02-21T02:19:03.453Z,95.04
2023-02-21T02:21:25.029Z,94.20
2023-02-21T02:23:44.524Z,94.54
2023-02-21T02:26:07.757Z,95.29
2023-02-21T02:28:33.506Z,95.26
2023-02-21T02:31:15.752Z,94.58
2023-02-21T02:33:45.797Z,94.53
2023-02-21T02:35:56.106Z,95.64
2023-02-21T02:38:07.152Z,94.87
2023-02-21T02:40:39.310Z,94.74
2023-02-21T02:42:58.933Z,95.38
2023-02-21T02:45:06.803Z,94.72
2023-02-21T02:47:17.308Z,94.79
2023-02-21T02:49:23.572Z,95.15
2023-02-21T02:51:26.620Z,95.66
2023-02-21T02:53:30.154Z,95.32
2023-02-21T02:55:41.661Z,96.06
2023-02-21T02:57:48.664Z,96.02
2023-02-21T02:59:49.976Z,95.29
2023-02-21T03:02:20.631Z,94.93
2023-02-21T03:04:49.897Z,95.93
2023-02-21T03:07:02.707Z,96.10
2023-02-21T03:09:23.201Z,96.41
2023-02-21T03:11:26.791Z,95.65
2023-02-21T03:13:36.462Z,95.67
2023-02-21T03:16:04.040Z,94.77
2023-02-21T03:18:21.057Z,95.65
2023-02-21T03:20:24.495Z,96.54
2023-02-21T03:22:30.671Z,96.29
2023-02-21T03:24:34.422Z,95.36
2023-02-21T03:26:38.736Z,95.53
2023-02-21T03:28:41.302Z,96.08
2023-02-21T03:30:45.616Z,95.40
2023-02-21T03:32:51.829Z,95.77
2023-02-21T03:34:53.421Z,95.32
2023-02-21T03:36:55.706Z,95.09
2023-02-21T03:38:57.065Z,95.23
2023-02-21T03:40:58.630Z,95.55
2023-02-21T03:43:02.341Z,96.39
2023-02-21T03:45:03.909Z,96.00
2023-02-21T03:47:05.369Z,96.21
2023-02-21T03:49:06.770Z,95.64
2023-02-21T03:51:08.168Z,95.50
2023-02-21T03:53:10.325Z,95.75
2023-02-21T03:55:12.302Z,95.96
2023-02-21T03:57:13.705Z,95.45
2023-02-21T03:59:15.088Z,95.66
2023-02-21T04:01:17.186Z,94.76
2023-02-21T04:03:18.834Z,95.52
2023-02-21T04:05:20.199Z,95.44
2023-02-21T04:07:22.386Z,95.61
2023-02-21T04:09:25.736Z,95.73
2023-02-21T04:11:27.204Z,95.28
2023-02-21T04:13:28.626Z,95.17
2023-02-21T04:15:29.976Z,94.98
2023-02-21T04:17:31.397Z,95.20
2023-02-21T04:19:32.855Z,94.36
2023-02-21T04:21:34.326Z,95.17
2023-02-21T04:23:35.821Z,94.55
2023-02-21T04:25:37.204Z,94.71
2023-02-21T04:27:38.553Z,94.43
2023-02-21T04:29:39.942Z,95.21
2023-02-21T04:31:41.443Z,95.14
2023-02-21T04:33:43.378Z,94.95
2023-02-21T04:35:44.828Z,95.09
2023-02-21T04:37:46.533Z,95.17
2023-02-21T04:39:48.049Z,94.87
2023-02-21T04:41:49.449Z,95.03
2023-02-21T04:43:50.885Z,94.41
2023-02-21T04:45:52.337Z,95.08
2023-02-21T04:47:53.701Z,95.10
2023-02-21T04:49:55.188Z,94.69
2023-02-21T04:51:56.673Z,94.77
2023-02-21T04:53:58.086Z,94.67
2023-02-21T04:55:59.625Z,94.57
2023-02-21T04:58:01.139Z,95.06
2023-02-21T05:00:06.290Z,94.88
2023-02-21T05:02:08.534Z,94.34
2023-02-21T05:04:10.089Z,95.06
2023-02-21T05:06:17.676Z,95.13
2023-02-21T05:08:19.060Z,95.21
2023-02-21T05:10:20.478Z,95.55
2023-02-21T05:12:21.872Z,95.83
2023-02-21T05:14:23.494Z,94.78
2023-02-21T05:16:25.582Z,95.23
2023-02-21T05:18:28.281Z,95.68
2023-02-21T05:20:29.724Z,95.60
2023-02-21T05:22:31.150Z,95.09
2023-02-21T05:24:33.160Z,95.71
2023-02-21T05:26:36.955Z,94.86
2023-02-21T05:28:40.211Z,95.84
2023-02-21T05:30:41.730Z,95.35
2023-02-21T05:32:43.265Z,95.29
2023-02-21T05:34:46.850Z,95.57
2023-02-21T05:36:48.325Z,95.69
2023-02-21T05:38:55.429Z,95.60
2023-02-21T05:40:56.950Z,95.78
2023-02-21T05:42:58.354Z,95.65
2023-02-21T05:44:59.829Z,95.58
2023-02-21T05:47:02.358Z,95.79
2023-02-21T05:49:04.273Z,95.16
2023-02-21T05:51:05.769Z,95.73
2023-02-21T05:53:09.792Z,95.41
2023-02-21T05:55:11.844Z,94.87
2023-02-21T05:57:13.282Z,95.03
2023-02-21T05:59:16.616Z,95.08
2023-02-21T06:01:18.362Z,95.74
2023-02-21T06:03:19.827Z,95.30
2023-02-21T06:05:22.098Z,95.12
2023-02-21T06:07:23.495Z,95.03
2023-02-21T06:09:25.422Z,95.65
2023-02-21T06:11:29.226Z,95.64
2023-02-21T06:13:32.909Z,95.04
2023-02-21T06:15:34.411Z,95.18
2023-02-21T06:17:39.381Z,95.82
2023-02-21T06:19:40.735Z,96.02
2023-02-21T06:21:43.126Z,95.56
2023-02-21T06:23:45.005Z,94.93
2023-02-21T06:25:46.395Z,95.95
2023-02-21T06:27:47.900Z,95.59
2023-02-21T06:29:49.337Z,95.75
2023-02-21T06:31:57.596Z,95.44
2023-02-21T06:33:59.607Z,95.66
2023-02-21T06:36:06.066Z,95.46
2023-02-21T06:38:07.477Z,95.35
2023-02-21T06:40:09.388Z,95.88
2023-02-21T06:42:15.707Z,95.67
2023-02-21T06:44:17.456Z,95.66
2023-02-21T06:46:20.742Z,95.83
2023-02-21T06:48:22.122Z,95.73
2023-02-21T06:50:23.545Z,95.17
2023-02-21T06:52:24.965Z,95.86
2023-02-21T06:54:26.417Z,95.80
2023-02-21T06:56:27.978Z,95.77
2023-02-21T06:58:29.405Z,95.46
2023-02-21T07:00:30.824Z,95.62
2023-02-21T07:02:32.238Z,95.22
2023-02-21T07:04:33.672Z,95.05
2023-02-21T07:06:35.130Z,96.04
2023-02-21T07:08:36.613Z,95.83
2023-02-21T07:10:38.033Z,95.21
2023-02-21T07:12:40.005Z,95.34
2023-02-21T07:14:41.391Z,95.07
2023-02-21T07:16:42.749Z,95.80
2023-02-21T07:18:47.549Z,95.29
2023-02-21T07:20:49.580Z,95.11
2023-02-21T07:22:50.987Z,95.17
2023-02-21T07:24:53.702Z,95.05
2023-02-21T07:26:55.885Z,95.52
2023-02-21T07:28:57.348Z,95.62
2023-02-21T07:30:58.780Z,96.02
2023-02-21T07:33:00.263Z,95.91
2023-02-21T07:35:01.664Z,95.06
2023-02-21T07:37:03.296Z,94.92
2023-02-21T07:39:04.867Z,94.85
2023-02-21T07:41:06.278Z,94.74
2023-02-21T07:43:07.699Z,95.10
2023-02-21T07:45:11.166Z,95.20
2023-02-21T07:47:12.548Z,94.81
2023-02-21T07:49:13.988Z,94.66
2023-02-21T07:51:15.703Z,95.45
2023-02-21T07:53:17.960Z,95.41
2023-02-21T07:55:19.354Z,94.85
2023-02-21T07:57:20.826Z,94.80
2023-02-21T07:59:22.286Z,94.97
2023-02-21T08:01:26.017Z,94.39
2023-02-21T08:03:27.404Z,94.62
2023-02-21T08:05:28.895Z,95.10
2023-02-21T08:07:30.496Z,95.00
2023-02-21T08:09:33.257Z,94.77
2023-02-21T08:11:36.637Z,94.67
2023-02-21T08:13:38.190Z,94.28
2023-02-21T08:15:39.614Z,95.06
2023-02-21T08:17:41.015Z,94.86
2023-02-21T08:19:42.532Z,94.44
2023-02-21T08:21:48.817Z,94.74
2023-02-21T08:23:54.956Z,93.95
2023-02-21T08:25:56.378Z,94.55
2023-02-21T08:27:58.798Z,94.19
2023-02-21T08:30:00.245Z,94.27
2023-02-21T08:32:01.739Z,94.67
2023-02-21T08:34:03.862Z,94.33
2023-02-21T08:36:05.648Z,94.33
2023-02-21T08:38:08.406Z,94.20
2023-02-21T08:40:10.325Z,93.93
2023-02-21T08:42:12.803Z,93.91
2023-02-21T08:44:16.334Z,93.16
2023-02-21T08:46:17.978Z,93.86
2023-02-21T08:48:19.453Z,94.20
2023-02-21T08:50:22.882Z,93.58
2023-02-21T08:52:24.286Z,93.48
2023-02-21T08:54:25.667Z,93.64
2023-02-21T08:56:28.039Z,94.12
2023-02-21T08:58:29.414Z,93.50
2023-02-21T09:00:30.870Z,93.50
2023-02-21T09:02:32.811Z,93.45
2023-02-21T09:04:35.828Z,93.24
2023-02-21T09:06:37.233Z,93.29
2023-02-21T09:08:39.092Z,93.42
2023-02-21T09:10:47.261Z,93.54
2023-02-21T09:12:49.069Z,93.33
2023-02-21T09:14:50.474Z,93.08
2023-02-21T09:16:51.860Z,93.44
2023-02-21T09:18:55.996Z,93.18
2023-02-21T09:20:58.109Z,93.06
2023-02-21T09:22:59.529Z,93.15
2023-02-21T09:25:02.611Z,93.34
2023-02-21T09:27:04.493Z,93.53
2023-02-21T09:29:06.054Z,93.89
2023-02-21T09:31:07.423Z,93.12
2023-02-21T09:33:09.540Z,93.75
2023-02-21T09:35:13.849Z,92.82
2023-02-21T09:37:15.281Z,93.19
2023-02-21T09:39:17.907Z,93.09
2023-02-21T09:41:19.884Z,93.10
2023-02-21T09:43:31.486Z,93.05
2023-02-21T09:45:36.168Z,93.29
2023-02-21T09:47:39.239Z,92.97
2023-02-21T09:49:43.908Z,92.96
2023-02-21T09:51:45.805Z,93.37
2023-02-21T09:53:48.527Z,93.04
2023-02-21T09:55:53.538Z,92.82
2023-02-21T09:57:56.419Z,93.19
2023-02-21T09:59:57.857Z,92.82
2023-02-21T10:02:14.032Z,92.61
2023-02-21T10:04:35.783Z,93.02
2023-02-21T10:06:51.279Z,93.19
2023-02-21T10:09:11.045Z,93.02
2023-02-21T10:11:45.516Z,92.73
2023-02-21T10:13:56.833Z,93.09
2023-02-21T10:16:13.070Z,92.85
2023-02-21T10:18:33.138Z,92.97
2023-02-21T10:20:52.314Z,92.78
2023-02-21T10:22:56.319Z,93.05
2023-02-21T10:24:57.887Z,93.17
2023-02-21T10:27:05.824Z,92.86
2023-02-21T10:29:20.176Z,92.75
2023-02-21T10:31:31.296Z,93.00
2023-02-21T10:33:36.253Z,92.63
2023-02-21T10:35:38.974Z,93.02
2023-02-21T10:37:53.637Z,92.85
2023-02-21T10:40:20.598Z,92.96
2023-02-21T10:42:31.826Z,93.31
2023-02-21T10:44:35.778Z,92.78
2023-02-21T10:46:45.230Z,92.91
2023-02-21T10:48:50.298Z,92.68
2023-02-21T10:51:04.187Z,92.83
2023-02-21T10:53:06.690Z,92.65
2023-02-21T10:55:32.377Z,92.67
2023-02-21T10:57:41.146Z,92.50
2023-02-21T10:59:43.454Z,92.31
2023-02-21T11:01:46.503Z,92.05
2023-02-21T11:03:53.769Z,92.19
2023-02-21T11:05:58.581Z,91.65
2023-02-21T11:08:09.125Z,92.09
2023-02-21T11:10:32.982Z,91.97
2023-02-21T11:12:34.516Z,91.66
2023-02-21T11:14:35.996Z,91.36
2023-02-21T11:16:37.494Z,91.25
2023-02-21T11:18:38.958Z,91.43
2023-02-21T11:20:40.938Z,91.14
2023-02-21T11:22:45.560Z,90.96
2023-02-21T11:24:59.862Z,90.96
2023-02-21T11:27:01.272Z,90.85
2023-02-21T11:29:13.822Z,90.25
2023-02-21T11:31:30.144Z,90.62
2023-02-21T11:33:32.928Z,89.76
2023-02-21T11:35:47.973Z,90.33
2023-02-21T11:38:01.521Z,90.23
2023-02-21T11:40:05.791Z,90.13
2023-02-21T11:42:34.147Z,89.69
2023-02-21T11:44:43.115Z,90.13
2023-02-21T11:46:47.203Z,90.24
2023-02-21T11:49:01.312Z,90.27
2023-02-21T11:51:30.379Z,90.62
2023-02-21T11:53:40.387Z,89.95
2023-02-21T11:55:50.425Z,89.89
2023-02-21T11:57:58.080Z,90.58
2023-02-21T12:00:37.839Z,90.14
2023-02-21T12:03:14.800Z,90.15
2023-02-21T12:05:42.643Z,89.94
2023-02-21T12:08:23.791Z,90.27
2023-02-21T12:10:53.009Z,89.77
2023-02-21T12:13:12.648Z,89.72
2023-02-21T12:15:30.910Z,89.97
2023-02-21T12:17:49.560Z,89.38
2023-02-21T12:20:24.939Z,88.87
2023-02-21T12:22:53.558Z,88.84
2023-02-21T12:25:03.907Z,87.96
2023-02-21T12:27:28.582Z,87.12
2023-02-21T12:29:29.974Z,85.07
2023-02-21T12:32:05.468Z,85.92
2023-02-21T12:34:19.067Z,85.67
2023-02-21T12:36:36.260Z,86.66
2023-02-21T12:39:13.004Z,85.62
2023-02-21T12:41:40.613Z,84.24
2023-02-21T12:43:54.889Z,84.96
2023-02-21T12:46:17.264Z,83.59
2023-02-21T12:48:38.251Z,83.47
2023-02-21T12:50:43.774Z,84.20
2023-02-21T12:53:03.119Z,82.79
2023-02-21T12:55:22.034Z,84.00
2023-02-21T12:57:37.285Z,83.33
2023-02-21T12:59:52.358Z,82.61
2023-02-21T13:02:01.302Z,82.94
2023-02-21T13:04:57.309Z,81.88
2023-02-21T13:07:07.529Z,81.66
2023-02-21T13:09:28.076Z,82.48
2023-02-21T13:11:37.772Z,81.95
2023-02-21T13:13:39.329Z,80.30
2023-02-21T13:15:43.581Z,81.06
2023-02-21T13:17:55.648Z,81.46
2023-02-21T13:20:09.215Z,81.01
2023-02-21T13:23:07.396Z,80.31
2023-02-21T13:25:17.629Z,81.08
2023-02-21T13:27:37.932Z,80.99
2023-02-21T13:29:42.360Z,81.16
2023-02-21T13:31:45.879Z,79.87
2023-02-21T13:33:52.776Z,80.58
2023-02-21T13:35:56.629Z,80.50
2023-02-21T13:38:00.121Z,80.26
2023-02-21T13:40:16.503Z,82.48
2023-02-21T13:42:24.802Z,82.49
2023-02-21T13:44:48.610Z,81.77
2023-02-21T13:46:53.172Z,81.53
2023-02-21T13:49:32.069Z,81.76
2023-02-21T13:51:53.000Z,81.30
2023-02-21T13:54:11.326Z,82.33
2023-02-21T13:56:15.561Z,82.98
2023-02-21T13:58:18.854Z,83.62
2023-02-21T14:00:26.676Z,82.70
2023-02-21T14:02:32.746Z,82.79
2023-02-21T14:04:58.096Z,83.70
2023-02-21T14:06:59.660Z,82.79
2023-02-21T14:09:06.962Z,83.39
2023-02-21T14:11:10.229Z,84.15
2023-02-21T14:13:22.377Z,84.03
2023-02-21T14:15:23.974Z,84.04
2023-02-21T14:17:29.399Z,84.07
2023-02-21T14:19:30.832Z,83.80
2023-02-21T14:21:32.166Z,83.78
2023-02-21T14:23:45.475Z,83.84
2023-02-21T14:26:00.110Z,83.70
2023-02-21T14:28:02.123Z,83.84
2023-02-21T14:30:12.971Z,84.25
2023-02-21T14:32:14.562Z,84.32
2023-02-21T14:34:48.390Z,84.60
2023-02-21T14:36:52.074Z,85.06
2023-02-21T14:38:54.198Z,84.59
2023-02-21T14:41:07.903Z,84.83
2023-02-21T14:43:54.577Z,84.59
2023-02-21T14:46:27.048Z,84.69
2023-02-21T14:48:40.341Z,84.49
2023-02-21T14:51:14.105Z,85.02
2023-02-21T14:53:37.247Z,85.95
2023-02-21T14:55:50.787Z,85.20
2023-02-21T14:58:29.850Z,85.58
2023-02-21T15:01:02.672Z,85.21
2023-02-21T15:03:20.830Z,84.88
2023-02-21T15:05:30.062Z,85.02
2023-02-21T15:07:37.506Z,84.90
2023-02-21T15:09:38.944Z,85.99
2023-02-21T15:11:41.226Z,85.49
2023-02-21T15:13:42.658Z,85.84
2023-02-21T15:15:44.145Z,85.86
2023-02-21T15:17:59.122Z,86.47
2023-02-21T15:20:13.752Z,86.08
2023-02-21T15:22:25.301Z,86.43
2023-02-21T15:24:28.328Z,85.65
2023-02-21T15:26:31.833Z,86.56
2023-02-21T15:28:33.385Z,86.48
2023-02-21T15:30:41.220Z,86.63
2023-02-21T15:32:43.360Z,86.94
2023-02-21T15:34:47.215Z,86.33
2023-02-21T15:37:12.503Z,86.58
2023-02-21T15:39:26.885Z,86.43
2023-02-21T15:41:33.886Z,86.63
2023-02-21T15:43:59.074Z,86.65
2023-02-21T15:46:03.294Z,87.40
2023-02-21T15:48:05.109Z,87.45
2023-02-21T15:50:12.269Z,86.94
2023-02-21T15:52:32.163Z,87.30
2023-02-21T15:54:38.317Z,87.00
2023-02-21T15:56:39.780Z,87.30
2023-02-21T15:58:41.277Z,87.52
2023-02-21T16:00:46.219Z,87.88
2023-02-21T16:02:47.755Z,87.22
2023-02-21T16:04:53.102Z,87.76
2023-02-21T16:06:57.657Z,88.34
2023-02-21T16:09:06.799Z,87.95
2023-02-21T16:11:08.240Z,88.07
2023-02-21T16:13:10.686Z,87.66
2023-02-21T16:15:18.213Z,87.92
2023-02-21T16:17:24.618Z,88.18
2023-02-21T16:19:32.652Z,88.15
2023-02-21T16:21:35.273Z,88.42
2023-02-21T16:23:40.786Z,88.49
2023-02-21T16:25:55.827Z,88.72
2023-02-21T16:28:00.110Z,88.89
2023-02-21T16:30:04.109Z,89.26
2023-02-21T16:32:06.802Z,88.83
2023-02-21T16:34:14.308Z,88.72
2023-02-21T16:36:30.791Z,88.80
2023-02-21T16:38:32.241Z,88.98
2023-02-21T16:40:35.282Z,89.16
2023-02-21T16:42:36.690Z,89.38
2023-02-21T16:44:38.101Z,89.58
2023-02-21T16:46:39.537Z,89.55
2023-02-21T16:48:41.205Z,89.46
2023-02-21T16:50:42.668Z,89.89
2023-02-21T16:52:44.107Z,89.45
2023-02-21T16:54:45.519Z,89.48
2023-02-21T16:56:50.408Z,89.91
2023-02-21T16:58:56.576Z,89.43
2023-02-21T17:01:01.192Z,89.91
2023-02-21T17:03:02.686Z,90.13
2023-02-21T17:05:04.204Z,90.15
2023-02-21T17:07:09.581Z,90.26
2023-02-21T17:09:18.815Z,90.25
2023-02-21T17:11:20.417Z,90.55
2023-02-21T17:13:21.905Z,90.66
2023-02-21T17:15:23.744Z,90.58
2023-02-21T17:17:25.226Z,90.45
2023-02-21T17:19:26.673Z,90.96
2023-02-21T17:21:28.096Z,90.58
2023-02-21T17:23:30.195Z,90.91
2023-02-21T17:25:32.608Z,91.00
2023-02-21T17:27:34.008Z,90.74
2023-02-21T17:29:35.388Z,90.79
2023-02-21T17:31:36.856Z,90.60
2023-02-21T17:33:40.121Z,90.32
2023-02-21T17:35:41.570Z,91.18
2023-02-21T17:37:43.635Z,90.76
2023-02-21T17:39:45.032Z,90.79
2023-02-21T17:41:48.343Z,91.26
2023-02-21T17:43:50.256Z,91.57
2023-02-21T17:45:51.729Z,91.33
2023-02-21T17:47:56.273Z,91.19
2023-02-21T17:50:01.832Z,91.37
2023-02-21T17:52:04.332Z,91.33
2023-02-21T17:54:05.803Z,91.36
2023-02-21T17:56:07.240Z,91.44
2023-02-21T17:58:09.691Z,91.63
2023-02-21T18:00:24.571Z,91.44
2023-02-21T18:02:25.967Z,91.79
2023-02-21T18:04:28.759Z,91.50
2023-02-21T18:06:30.610Z,91.88
2023-02-21T18:08:32.011Z,91.34
2023-02-21T18:10:33.434Z,91.45
2023-02-21T18:12:34.936Z,91.56
2023-02-21T18:14:36.390Z,91.63
2023-02-21T18:16:37.797Z,91.58
2023-02-21T18:18:39.273Z,91.95
2023-02-21T18:20:40.672Z,92.17
2023-02-21T18:22:42.761Z,91.92
2023-02-21T18:24:44.136Z,91.92
2023-02-21T18:26:46.532Z,91.96
2023-02-21T18:28:47.949Z,91.85
2023-02-21T18:30:51.234Z,91.67
2023-02-21T18:32:52.853Z,91.82
2023-02-21T18:34:54.324Z,92.11
2023-02-21T18:36:55.830Z,92.15
2023-02-21T18:38:57.765Z,92.07
2023-02-21T18:41:01.756Z,92.19
2023-02-21T18:43:05.999Z,92.29
2023-02-21T18:45:07.821Z,91.87
2023-02-21T18:47:11.174Z,91.98
2023-02-21T18:49:13.830Z,92.01
2023-02-21T18:51:18.800Z,91.56
2023-02-21T18:53:20.736Z,91.98
2023-02-21T18:55:22.150Z,91.95
2023-02-21T18:57:24.206Z,92.33
2023-02-21T18:59:25.612Z,91.54
2023-02-21T19:01:27.220Z,91.57
2023-02-21T19:03:28.797Z,91.86
2023-02-21T19:05:30.252Z,92.32
2023-02-21T19:07:36.211Z,92.45
2023-02-21T19:09:37.654Z,91.89
2023-02-21T19:11:39.375Z,92.08
2023-02-21T19:13:41.184Z,92.39
2023-02-21T19:15:43.172Z,92.52
2023-02-21T19:17:44.902Z,92.35
2023-02-21T19:19:46.287Z,92.16
2023-02-21T19:21:47.764Z,92.41
2023-02-21T19:23:49.294Z,92.29
2023-02-21T19:25:50.716Z,91.98
2023-02-21T19:27:59.964Z,92.15
2023-02-21T19:30:01.404Z,92.02
2023-02-21T19:32:03.127Z,92.19
2023-02-21T19:34:05.006Z,92.03
2023-02-21T19:36:07.997Z,92.44
2023-02-21T19:38:09.445Z,92.50
2023-02-21T19:40:11.094Z,92.29
2023-02-21T19:42:12.521Z,93.02
2023-02-21T19:44:14.473Z,92.93
2023-02-21T19:46:24.464Z,93.00
2023-02-21T19:48:26.014Z,92.22
2023-02-21T19:50:27.478Z,92.97
2023-02-21T19:52:29.210Z,92.77
2023-02-21T19:54:31.492Z,92.13
2023-02-21T19:56:32.906Z,92.45
2023-02-21T19:58:34.391Z,92.62
2023-02-21T20:00:38.512Z,92.35
2023-02-21T20:02:39.960Z,92.76
2023-02-21T20:04:43.346Z,92.93
2023-02-21T20:06:44.752Z,91.99
2023-02-21T20:08:48.143Z,92.53
2023-02-21T20:10:49.654Z,92.82
2023-02-21T20:12:55.493Z,92.62
2023-02-21T20:14:56.926Z,93.23
2023-02-21T20:16:58.423Z,92.90
2023-02-21T20:18:59.806Z,92.51
2023-02-21T20:21:01.184Z,92.46
2023-02-21T20:23:03.540Z,92.48
2023-02-21T20:25:05.879Z,93.21
2023-02-21T20:27:07.274Z,92.84
2023-02-21T20:29:08.696Z,93.48
2023-02-21T20:31:13.424Z,92.94
2023-02-21T20:33:15.147Z,92.99
2023-02-21T20:35:16.537Z,92.87
2023-02-21T20:37:19.137Z,92.77
2023-02-21T20:39:28.272Z,92.96
2023-02-21T20:41:35.418Z,92.80
2023-02-21T20:43:37.410Z,93.11
2023-02-21T20:45:39.206Z,93.31
2023-02-21T20:47:40.709Z,92.98
2023-02-21T20:49:46.448Z,93.47
2023-02-21T20:51:48.497Z,93.62
2023-02-21T20:53:49.888Z,93.41
2023-02-21T20:55:51.307Z,93.34
2023-02-21T20:57:52.763Z,92.90
2023-02-21T20:59:54.157Z,92.96
2023-02-21T21:01:56.222Z,93.04
2023-02-21T21:03:57.799Z,93.24
2023-02-21T21:05:59.225Z,93.59
2023-02-21T21:08:01.540Z,93.58
2023-02-21T21:10:03.150Z,93.37
2023-02-21T21:12:09.058Z,93.67
2023-02-21T21:14:10.661Z,93.80
2023-02-21T21:16:12.602Z,93.20
2023-02-21T21:18:13.980Z,93.34
2023-02-21T21:20:18.927Z,94.03
2023-02-21T21:22:24.225Z,93.38
2023-02-21T21:24:25.615Z,93.92
2023-02-21T21:26:27.025Z,93.58
2023-02-21T21:28:31.775Z,93.72
2023-02-21T21:30:33.347Z,93.67
2023-02-21T21:32:35.002Z,93.65
2023-02-21T21:34:38.855Z,94.26
2023-02-21T21:36:45.125Z,93.45
2023-02-21T21:38:47.037Z,94.35
2023-02-21T21:40:48.523Z,93.23
2023-02-21T21:42:54.961Z,93.73
2023-02-21T21:44:56.881Z,93.46
2023-02-21T21:47:02.186Z,93.70
2023-02-21T21:49:06.185Z,94.30
2023-02-21T21:51:09.364Z,93.64
2023-02-21T21:53:11.102Z,94.29
2023-02-21T21:55:18.655Z,93.84
2023-02-21T21:57:22.711Z,93.76
2023-02-21T21:59:26.733Z,93.75
2023-02-21T22:01:29.918Z,93.70
2023-02-21T22:03:32.013Z,94.10
2023-02-21T22:05:35.319Z,93.79
2023-02-21T22:07:36.710Z,94.01
2023-02-21T22:09:38.948Z,93.55
2023-02-21T22:11:43.075Z,93.65
2023-02-21T22:13:44.455Z,94.33
2023-02-21T22:15:46.701Z,94.59
2023-02-21T22:17:49.004Z,94.43
2023-02-21T22:19:50.509Z,94.33
2023-02-21T22:21:56.776Z,94.06
2023-02-21T22:23:58.765Z,93.76
2023-02-21T22:26:00.934Z,94.28
2023-02-21T22:28:05.401Z,93.87
2023-02-21T22:30:09.067Z,94.08
2023-02-21T22:32:10.720Z,93.92
2023-02-21T22:34:22.990Z,94.04
2023-02-21T22:36:25.510Z,93.87
2023-02-21T22:38:26.887Z,94.03
2023-02-21T22:40:29.943Z,94.64
2023-02-21T22:42:31.817Z,94.39
2023-02-21T22:44:33.208Z,94.51
2023-02-21T22:46:41.508Z,93.72
2023-02-21T22:48:44.713Z,94.01
2023-02-21T22:50:47.601Z,94.30
2023-02-21T22:52:50.943Z,93.95
2023-02-21T22:54:52.908Z,94.13
2023-02-21T22:57:03.425Z,93.91
2023-02-21T22:59:08.803Z,94.24
2023-02-21T23:01:10.183Z,94.37
2023-02-21T23:03:14.409Z,94.56
2023-02-21T23:05:19.560Z,93.67
2023-02-21T23:07:24.520Z,94.08
2023-02-21T23:09:29.001Z,93.83
2023-02-21T23:11:31.272Z,93.94
2023-02-21T23:13:32.947Z,93.92
2023-02-21T23:15:35.355Z,94.48
2023-02-21T23:17:38.044Z,94.30
2023-02-21T23:19:39.811Z,94.53
2023-02-21T23:21:46.331Z,94.38
2023-02-21T23:23:47.699Z,93.78
2023-02-21T23:25:49.131Z,94.07
2023-02-21T23:27:56.019Z,93.78
2023-02-21T23:29:58.794Z,93.91
2023-02-21T23:32:09.397Z,93.93
2023-02-21T23:34:12.042Z,94.15
2023-02-21T23:36:13.521Z,94.29
2023-02-21T23:38:15.747Z,93.82
2023-02-21T23:40:20.382Z,93.59
2023-02-21T23:42:23.664Z,94.23
2023-02-21T23:44:25.049Z,93.75
2023-02-21T23:46:29.148Z,93.67
2023-02-21T23:48:32.548Z,93.95
2023-02-21T23:50:35.084Z,93.65
2023-02-21T23:52:37.252Z,94.30
2023-02-21T23:54:40.271Z,94.32
2023-02-21T23:56:41.765Z,94.43
2023-02-21T23:58:46.423Z,94.28
